Архив погоды в Боковской

Метеограмма Боковская
Среда, 19 Июня
Время местн. Темп Ветер Видим Явления Облачность нижн/средн/верх Атм. давл. Влжн Точка росы ВНГО R Сост. почвы Tg s
Напр Скр Прв ур.ст ур.м изм
15:00 +27.8° С-В 4 - 20 км - облачно с прояснениями 752 759 -0.3 44% +14.3° 1 км - - - -
12:00 +30° Ю,Ю-З 2 - 20 км - облачно с прояснениями 752 760 -0.3 35% +12.8° 1 км - - - -
09:00 +27.4° З,С-З 2 - 20 км - облачно с прояснениями 752 760 +0.1 44% +14.1° 1 км - - - -
06:00 +15.3° З 1 - 20 км - переменная облачность 752 760 +0.1 85% +12.8° - - Сухая (без трещин) - -
03:00 +13.1° штиль 0 - 20 км - ясно 752 760 0 89% +11.4° более 2.5 км - - - -
00:00 +15.7° З,С-З 1 - 20 км - ясно 752 760 +0.1 86% +13.3° более 2.5 км - - - -
Вторник, 18 Июня
Время местн. Темп Ветер Видим Явления Облачность нижн/средн/верх Атм. давл. Влжн Точка росы ВНГО R Сост. почвы Tg s
Напр Скр Прв ур.ст ур.м изм
21:00 +20.8° З 1 - 20 км - переменная облачность 752 760 +0.5 69% +14.8° более 2.5 км - - - -
18:00 +29.2° З 2 - 20 км - переменная облачность 752 759 -0.8 30% +10° 1.5 км - - - -
15:00 +28.6° З,С-З 3 - 20 км - облачно с прояснениями 752 760 -0.5 33% +10.8° 1.5 км - - - -
12:00 +28.2° С 2 - 20 км - переменная облачность 753 761 -0.5 31% +9.4° 1.5 км - - - -
09:00 +25.8° С-З 2 - 20 км - ясно 753 761 +0.1 41% +11.5° более 2.5 км - - - -
06:00 +15.8° З 2 - 20 км - ясно 754 762 +0.4 82% +12.7° более 2.5 км - Сухая (без трещин) - -
03:00 +13.7° З,С-З 1 - 20 км - ясно 753 761 -0.2 89% +12° более 2.5 км - - - -
00:00 +17.4° З 1 - 20 км - преимущественно облачно 753 761 +0.4 72% +12.3° - - - - -
Понедельник, 17 Июня
Время местн. Темп Ветер Видим Явления Облачность нижн/средн/верх Атм. давл. Влжн Точка росы ВНГО R Сост. почвы Tg s
Напр Скр Прв ур.ст ур.м изм
21:00 +20.1° З,С-З 1 - 20 км - незначительная облачность 753 761 +0.5 62% +12.7° - - - - -
18:00 +27.4° С 3 - 20 км - переменная облачность 752 760 -0.3 32% +9.1° более 2.5 км 0 - - -
15:00 +28° С 3 - 20 км - переменная облачность 753 761 -0.6 31% +9.3° 1.5 км - - - -
12:00 +26.5° С-В 4 - 20 км - переменная облачность 753 761 +0.2 37% +10.8° более 2.5 км - - - -
09:00 +23.2° С-В 4 - 20 км - ясно 753 761 +0.9 45% +10.5° более 2.5 км - - - -
06:00 +15.9° С,С-В 2 - 20 км - ясно 752 760 +0.6 77% +11.8° более 2.5 км - Влажная (без луж) - -
03:00 +14° З 1 - 20 км - облачно с прояснениями 752 760 +0.2 92% +12.7° более 2.5 км - - - -
00:00 +16.5° З 1 - 20 км - облачно с прояснениями 751 760 +1 95% +15.7° - - - - -
Воскресенье, 16 Июня
Время местн. Темп Ветер Видим Явления Облачность нижн/средн/верх Атм. давл. Влжн Точка росы ВНГО R Сост. почвы Tg s
Напр Скр Прв ур.ст ур.м изм
21:00 +18.1° Ю-В 1 - 20 км гроза {ливневые осадки} облачно с прояснениями 750 759 +0.4 93% +16.9° 1 км - - - -
18:00 +21.7° С,С-В 2 - 20 км облака развиваются {гроза, ливневые осадки} облачно 750 758 +0.4 75% +17° 1 км - - - -
15:00 +23.9° З,С-З 1 - 20 км гроза без осадков {ливневые осадки} облачно 750 758 -0.5 76% +19.4° 1 км - - - -
12:00 +29.7° С,С-З 2 - 20 км - преимущественно облачно 750 758 -0.7 36% +12.9° 1 км - - - -